createdAt,value
2022-08-31T00:01:25.613Z,49.57
2022-08-31T00:06:33.468Z,49.50
2022-08-31T00:11:39.338Z,49.00
2022-08-31T00:16:46.331Z,49.20
2022-08-31T00:21:51.723Z,47.77
2022-08-31T00:26:56.654Z,47.90
2022-08-31T00:32:02.650Z,47.40
2022-08-31T00:37:07.736Z,47.67
2022-08-31T00:42:12.780Z,48.53
2022-08-31T00:47:18.150Z,47.97
2022-08-31T00:52:27.115Z,47.83
2022-08-31T00:57:36.281Z,47.10
2022-08-31T01:02:42.588Z,48.27
2022-08-31T01:07:49.653Z,48.07
2022-08-31T01:12:57.499Z,48.97
2022-08-31T01:18:05.506Z,48.80
2022-08-31T01:23:20.579Z,48.47
2022-08-31T01:28:27.442Z,48.65
2022-08-31T01:33:34.666Z,48.43
2022-08-31T01:38:40.058Z,48.50
2022-08-31T01:43:45.226Z,47.87
2022-08-31T01:48:50.679Z,48.53
2022-08-31T01:53:56.569Z,48.47
2022-08-31T01:59:07.651Z,47.77
2022-08-31T02:04:11.119Z,47.30
2022-08-31T02:09:17.847Z,47.43
2022-08-31T02:14:23.849Z,47.38
2022-08-31T02:19:30.253Z,48.10
2022-08-31T02:24:35.739Z,47.88
2022-08-31T02:29:41.177Z,47.23
2022-08-31T02:34:49.661Z,47.70
2022-08-31T02:39:55.453Z,46.93
2022-08-31T02:45:01.501Z,46.97
2022-08-31T02:50:08.261Z,48.23
2022-08-31T02:55:14.248Z,47.70
2022-08-31T03:00:22.470Z,48.10
2022-08-31T03:05:29.094Z,48.37
2022-08-31T03:10:34.532Z,48.50
2022-08-31T03:15:40.159Z,48.27
2022-08-31T03:20:45.130Z,47.93
2022-08-31T03:25:50.971Z,48.07
2022-08-31T03:30:56.227Z,48.63
2022-08-31T03:36:04.692Z,47.50
2022-08-31T03:41:12.500Z,47.83
2022-08-31T03:46:18.039Z,47.63
2022-08-31T03:51:23.224Z,48.63
2022-08-31T03:56:28.890Z,48.45
2022-08-31T04:01:33.865Z,47.70
2022-08-31T04:06:42.129Z,47.70
2022-08-31T04:11:48.306Z,48.17
2022-08-31T04:16:54.095Z,47.93
2022-08-31T04:21:59.433Z,47.03
2022-08-31T04:27:04.578Z,46.83
2022-08-31T04:32:10.039Z,48.00
2022-08-31T04:37:15.487Z,48.07
2022-08-31T04:42:21.497Z,48.95
2022-08-31T04:47:26.991Z,47.97
2022-08-31T04:57:40.615Z,47.70
2022-08-31T05:02:52.708Z,47.97
2022-08-31T05:07:53.800Z,48.47
2022-08-31T05:12:59.231Z,47.87
2022-08-31T05:18:04.727Z,47.00
2022-08-31T05:23:10.779Z,48.45
2022-08-31T05:28:18.206Z,48.13
2022-08-31T05:33:23.654Z,47.98
2022-08-31T05:38:28.618Z,48.47
2022-08-31T05:43:34.943Z,48.50
2022-08-31T05:48:40.781Z,48.87
2022-08-31T05:53:47.358Z,50.00
2022-08-31T05:58:54.123Z,49.23
2022-08-31T06:04:00.642Z,49.30
2022-08-31T06:09:08.445Z,48.83
2022-08-31T06:14:14.659Z,49.00
2022-08-31T06:19:20.555Z,50.05
2022-08-31T06:24:27.254Z,50.77
2022-08-31T06:29:33.707Z,49.40
2022-08-31T06:34:40.535Z,49.90
2022-08-31T06:39:47.838Z,49.40
2022-08-31T06:44:53.302Z,49.10
2022-08-31T06:49:58.586Z,49.23
2022-08-31T06:55:03.629Z,49.60
2022-08-31T07:00:09.552Z,49.50
2022-08-31T07:05:19.916Z,50.70
2022-08-31T07:10:22.786Z,50.07
2022-08-31T07:15:27.902Z,51.83
2022-08-31T07:20:33.225Z,53.63
2022-08-31T07:25:39.440Z,52.70
2022-08-31T07:30:46.396Z,51.63
2022-08-31T07:35:52.727Z,51.13
2022-08-31T07:41:16.718Z,50.27
2022-08-31T07:46:22.946Z,50.80
2022-08-31T07:51:29.631Z,50.33
2022-08-31T07:56:37.401Z,50.57
2022-08-31T08:01:44.010Z,50.07
2022-08-31T08:06:50.139Z,50.63
2022-08-31T08:12:01.276Z,50.85
2022-08-31T08:17:07.621Z,51.30
2022-08-31T08:22:13.005Z,52.47
2022-08-31T08:27:19.484Z,51.28
2022-08-31T08:32:25.871Z,51.00
2022-08-31T08:37:56.548Z,51.60
2022-08-31T08:42:40.772Z,51.90
2022-08-31T08:47:47.916Z,51.77
2022-08-31T08:52:55.926Z,50.63
2022-08-31T08:58:03.125Z,51.43
2022-08-31T09:03:27.514Z,51.08
2022-08-31T09:08:54.852Z,51.00
2022-08-31T09:14:08.783Z,51.20
2022-08-31T09:19:17.703Z,52.53
2022-08-31T09:24:26.844Z,51.60
2022-08-31T09:29:33.201Z,52.20
2022-08-31T09:34:44.595Z,52.93
2022-08-31T09:39:53.037Z,53.07
2022-08-31T09:45:05.475Z,52.63
2022-08-31T09:50:13.515Z,51.05
2022-08-31T09:55:25.408Z,51.73
2022-08-31T10:00:42.925Z,52.17
2022-08-31T10:05:50.616Z,52.20
2022-08-31T10:11:00.682Z,52.20
2022-08-31T10:16:11.024Z,51.30
2022-08-31T10:21:21.608Z,51.40
2022-08-31T10:26:34.943Z,51.95
2022-08-31T10:31:48.348Z,53.50
2022-08-31T10:36:59.338Z,53.07
2022-08-31T10:42:08.172Z,51.90
2022-08-31T10:47:21.660Z,51.70
2022-08-31T10:52:29.714Z,51.47
2022-08-31T10:57:41.270Z,52.37
2022-08-31T11:02:56.189Z,51.00
2022-08-31T11:08:04.660Z,51.23
2022-08-31T11:13:15.259Z,51.43
2022-08-31T11:18:26.050Z,51.37
2022-08-31T11:23:42.184Z,51.67
2022-08-31T11:28:51.196Z,52.00
2022-08-31T11:34:15.608Z,52.43
2022-08-31T11:39:11.242Z,51.90
2022-08-31T11:44:36.939Z,51.63
2022-08-31T11:54:55.962Z,50.23
2022-08-31T12:00:02.571Z,50.17
2022-08-31T12:05:08.294Z,49.67
2022-08-31T12:10:18.288Z,50.17
2022-08-31T12:15:40.936Z,49.70
2022-08-31T12:21:17.191Z,50.23
2022-08-31T12:26:25.215Z,49.93
2022-08-31T12:31:30.579Z,50.37
2022-08-31T12:36:37.952Z,50.40
2022-08-31T12:41:46.575Z,50.98
2022-08-31T12:47:24.044Z,50.93
2022-08-31T12:52:34.010Z,50.20
2022-08-31T12:58:01.719Z,50.80
2022-08-31T13:03:10.911Z,51.55
2022-08-31T13:08:26.455Z,51.48
2022-08-31T13:13:31.770Z,51.10
2022-08-31T13:18:37.559Z,51.67
2022-08-31T13:23:47.090Z,51.37
2022-08-31T13:28:55.950Z,50.80
2022-08-31T13:34:03.990Z,51.30
2022-08-31T13:39:18.264Z,51.47
2022-08-31T13:44:28.796Z,51.23
2022-08-31T13:49:42.070Z,51.08
2022-08-31T13:54:58.825Z,50.97
2022-08-31T14:00:24.232Z,49.87
2022-08-31T14:05:36.381Z,49.93
2022-08-31T14:10:46.392Z,49.85
2022-08-31T14:15:56.452Z,50.33
2022-08-31T14:21:27.456Z,50.00
2022-08-31T14:26:24.334Z,49.48
2022-08-31T14:31:38.495Z,49.50
2022-08-31T14:36:47.275Z,49.90
2022-08-31T14:41:55.819Z,49.27
2022-08-31T14:47:02.150Z,48.90
2022-08-31T14:52:08.607Z,49.30
2022-08-31T14:57:17.224Z,49.37
2022-08-31T15:02:23.630Z,49.32
2022-08-31T15:07:31.119Z,49.33
2022-08-31T15:12:37.581Z,49.63
2022-08-31T15:17:43.381Z,49.30
2022-08-31T15:22:48.831Z,49.53
2022-08-31T15:27:54.669Z,49.50
2022-08-31T15:33:01.430Z,49.23
2022-08-31T15:38:08.711Z,49.47
2022-08-31T15:43:16.206Z,49.55
2022-08-31T15:48:39.487Z,49.50
2022-08-31T15:54:01.023Z,48.83
2022-08-31T15:58:56.244Z,48.53
2022-08-31T16:04:01.809Z,48.60
2022-08-31T16:09:08.645Z,48.28
2022-08-31T16:14:15.857Z,48.43
2022-08-31T16:19:34.555Z,48.07
2022-08-31T16:24:28.615Z,48.73
2022-08-31T16:29:34.802Z,48.52
2022-08-31T16:34:42.943Z,48.48
2022-08-31T16:39:49.389Z,49.23
2022-08-31T16:44:59.836Z,48.83
2022-08-31T16:50:04.976Z,48.67
2022-08-31T16:55:13.193Z,48.50
2022-08-31T17:00:19.020Z,48.73
2022-08-31T17:05:26.468Z,48.48
2022-08-31T17:10:34.605Z,48.40
2022-08-31T17:15:41.308Z,48.23
2022-08-31T17:20:49.160Z,48.40
2022-08-31T17:25:56.460Z,48.65
2022-08-31T17:31:03.901Z,48.73
2022-08-31T17:36:10.169Z,49.03
2022-08-31T17:41:17.039Z,48.60
2022-08-31T17:51:32.459Z,49.33
2022-08-31T17:56:47.870Z,49.63
2022-08-31T18:01:57.050Z,49.07
2022-08-31T18:07:04.769Z,48.73
2022-08-31T18:12:10.700Z,49.13
2022-08-31T18:17:20.201Z,49.30
2022-08-31T18:22:26.893Z,49.03
2022-08-31T18:27:33.059Z,49.23
2022-08-31T18:32:38.996Z,48.77
2022-08-31T18:37:50.214Z,48.80
2022-08-31T18:43:17.938Z,49.03
2022-08-31T18:48:26.578Z,48.90
2022-08-31T18:53:37.267Z,48.53
2022-08-31T18:58:43.504Z,48.83
2022-08-31T19:03:50.364Z,49.13
2022-08-31T19:08:56.020Z,48.87
2022-08-31T19:14:03.517Z,48.63
2022-08-31T19:19:09.815Z,48.83
2022-08-31T19:24:17.478Z,48.37
2022-08-31T19:29:27.192Z,48.73
2022-08-31T19:34:37.212Z,48.85
2022-08-31T19:39:46.224Z,49.43
2022-08-31T19:44:54.995Z,48.73
2022-08-31T19:50:03.217Z,49.13
2022-08-31T19:55:09.433Z,48.38
2022-08-31T20:00:16.038Z,49.40
2022-08-31T20:05:22.273Z,48.47
2022-08-31T20:15:35.608Z,48.83
2022-08-31T20:20:46.228Z,48.53
2022-08-31T20:25:53.519Z,48.63
2022-08-31T20:31:01.234Z,48.27
2022-08-31T20:36:20.706Z,47.93
2022-08-31T20:41:32.709Z,48.20
2022-08-31T20:47:03.069Z,48.53
2022-08-31T20:52:09.841Z,48.73
2022-08-31T20:57:17.091Z,49.13
2022-08-31T21:02:23.158Z,48.37
2022-08-31T21:07:28.966Z,48.90
2022-08-31T21:12:34.290Z,48.05
2022-08-31T21:17:41.080Z,47.83
2022-08-31T21:27:53.379Z,47.62
2022-08-31T21:32:58.454Z,48.17
2022-08-31T21:38:04.062Z,47.93
2022-08-31T21:43:09.942Z,47.80
2022-08-31T21:48:16.027Z,48.90
2022-08-31T21:58:27.127Z,46.87
2022-08-31T22:03:33.776Z,47.10
2022-08-31T22:08:41.554Z,47.58
2022-08-31T22:13:48.002Z,47.43
2022-08-31T22:19:01.851Z,47.43
2022-08-31T22:24:10.722Z,46.80
2022-08-31T22:29:22.448Z,46.67
2022-08-31T22:34:28.336Z,46.77
2022-08-31T22:39:33.861Z,47.60
2022-08-31T22:44:41.003Z,46.63
2022-08-31T22:49:47.158Z,47.07
2022-08-31T22:54:52.595Z,47.10
2022-08-31T22:59:58.019Z,47.03
2022-08-31T23:05:03.629Z,46.93
2022-08-31T23:10:10.213Z,46.17
2022-08-31T23:15:16.379Z,46.58
2022-08-31T23:20:24.372Z,46.48
2022-08-31T23:25:31.306Z,46.17
2022-08-31T23:30:40.162Z,46.75
2022-08-31T23:35:47.249Z,46.67
2022-08-31T23:40:54.086Z,46.33
2022-08-31T23:46:03.464Z,46.73
2022-08-31T23:51:10.938Z,46.70
2022-08-31T23:56:18.615Z,46.48
